createdAt,value
2023-01-11T00:00:18.548Z,10.14
2023-01-11T00:02:48.577Z,10.16
2023-01-11T00:05:18.099Z,10.14
2023-01-11T00:07:47.840Z,10.24
2023-01-11T00:10:17.856Z,10.31
2023-01-11T00:12:48.320Z,10.34
2023-01-11T00:15:19.290Z,10.33
2023-01-11T00:17:49.037Z,10.30
2023-01-11T00:20:19.319Z,10.36
2023-01-11T00:22:49.111Z,10.35
2023-01-11T00:25:18.808Z,10.20
2023-01-11T00:27:49.647Z,10.36
2023-01-11T00:30:19.604Z,10.44
2023-01-11T00:32:49.361Z,10.29
2023-01-11T00:35:18.959Z,10.43
2023-01-11T00:37:48.759Z,10.30
2023-01-11T00:40:18.358Z,10.41
2023-01-11T00:43:05.790Z,10.42
2023-01-11T00:45:53.206Z,10.53
2023-01-11T00:48:22.797Z,10.63
2023-01-11T00:50:55.875Z,10.41
2023-01-11T00:53:25.675Z,10.67
2023-01-11T00:55:55.444Z,10.56
2023-01-11T00:58:25.162Z,10.47
2023-01-11T01:00:54.905Z,10.70
2023-01-11T01:03:24.627Z,10.61
2023-01-11T01:05:55.983Z,10.61
2023-01-11T01:08:25.454Z,10.75
2023-01-11T01:10:55.179Z,10.63
2023-01-11T01:13:42.521Z,10.72
2023-01-11T01:16:12.267Z,10.72
2023-01-11T01:18:42.101Z,10.56
2023-01-11T01:21:11.928Z,10.62
2023-01-11T01:23:41.682Z,10.59
2023-01-11T01:26:11.659Z,10.54
2023-01-11T01:28:41.457Z,10.56
2023-01-11T01:31:11.230Z,10.62
2023-01-11T01:33:41.324Z,10.41
2023-01-11T01:36:11.456Z,10.49
2023-01-11T01:38:41.189Z,10.72
2023-01-11T01:41:13.799Z,10.63
2023-01-11T01:43:55.455Z,10.68
2023-01-11T01:46:30.626Z,10.55
2023-01-11T01:49:06.443Z,10.47
2023-01-11T01:51:38.949Z,10.67
2023-01-11T01:54:14.575Z,10.78
2023-01-11T01:56:47.666Z,10.69
2023-01-11T01:59:21.043Z,10.62
2023-01-11T02:01:52.749Z,10.75
2023-01-11T02:04:25.306Z,10.75
2023-01-11T02:07:00.923Z,10.68
2023-01-11T02:10:00.390Z,10.70
2023-01-11T02:12:33.177Z,10.75
2023-01-11T02:15:04.780Z,10.82
2023-01-11T02:17:35.002Z,10.75
2023-01-11T02:23:26.969Z,10.95
2023-01-11T02:26:19.254Z,10.68
2023-01-11T02:29:13.871Z,10.68
2023-01-11T02:32:04.546Z,10.93
2023-01-11T02:34:42.778Z,10.94
2023-01-11T02:37:27.288Z,10.75
2023-01-11T02:40:17.437Z,11.12
2023-01-11T02:43:13.364Z,11.01
2023-01-11T02:46:00.891Z,11.15
2023-01-11T02:48:45.443Z,11.15
2023-01-11T02:51:20.766Z,11.06
2023-01-11T02:53:56.337Z,11.09
2023-01-11T02:56:28.287Z,11.07
2023-01-11T02:59:00.870Z,11.25
2023-01-11T03:01:31.003Z,11.03
2023-01-11T03:04:00.757Z,11.06
2023-01-11T03:06:33.616Z,11.30
2023-01-11T03:09:15.275Z,11.16
2023-01-11T03:12:26.731Z,11.27
2023-01-11T03:14:59.495Z,11.28
2023-01-11T03:17:38.180Z,11.22
2023-01-11T03:20:15.656Z,11.47
2023-01-11T03:23:06.502Z,11.45
2023-01-11T03:25:41.932Z,11.37
2023-01-11T03:28:46.059Z,11.40
2023-01-11T03:31:39.586Z,11.39
2023-01-11T03:34:27.153Z,11.49
2023-01-11T03:36:59.914Z,11.58
2023-01-11T03:39:32.722Z,11.46
2023-01-11T03:42:05.271Z,11.49
2023-01-11T03:44:38.043Z,11.49
2023-01-11T03:47:10.882Z,11.65
2023-01-11T03:49:58.612Z,11.65
2023-01-11T03:52:31.057Z,11.62
2023-01-11T03:55:02.741Z,11.61
2023-01-11T03:57:38.574Z,11.58
2023-01-11T04:00:11.997Z,11.58
2023-01-11T04:02:42.819Z,11.70
2023-01-11T04:05:13.035Z,11.60
2023-01-11T04:07:42.754Z,11.63
2023-01-11T04:10:14.354Z,11.45
2023-01-11T04:12:45.566Z,11.69
2023-01-11T04:15:15.464Z,11.82
2023-01-11T04:17:45.364Z,11.95
2023-01-11T04:20:15.175Z,11.83
2023-01-11T04:22:44.911Z,11.98
2023-01-11T04:25:14.710Z,11.89
2023-01-11T04:27:44.465Z,11.90
2023-01-11T04:30:14.844Z,11.95
2023-01-11T04:32:44.622Z,12.00
2023-01-11T04:35:14.795Z,12.09
2023-01-11T04:37:44.478Z,12.11
2023-01-11T04:40:15.170Z,12.06
2023-01-11T04:42:46.393Z,12.00
2023-01-11T04:45:16.367Z,12.01
2023-01-11T04:47:46.103Z,12.27
2023-01-11T04:50:16.014Z,11.96
2023-01-11T04:52:45.745Z,12.06
2023-01-11T04:55:15.580Z,11.96
2023-01-11T04:57:46.057Z,12.26
2023-01-11T05:00:16.154Z,11.97
2023-01-11T05:02:45.905Z,12.05
2023-01-11T05:05:15.652Z,11.94
2023-01-11T05:07:45.388Z,12.13
2023-01-11T05:10:15.005Z,12.11
2023-01-11T05:12:46.390Z,12.12
2023-01-11T05:15:15.912Z,12.11
2023-01-11T05:17:45.659Z,12.13
2023-01-11T05:20:15.107Z,12.24
2023-01-11T05:22:44.843Z,12.02
2023-01-11T05:25:14.575Z,12.27
2023-01-11T05:27:44.309Z,12.04
2023-01-11T05:30:14.184Z,12.07
2023-01-11T05:32:43.924Z,12.16
2023-01-11T05:35:13.749Z,12.13
2023-01-11T05:37:43.264Z,12.27
2023-01-11T05:40:14.631Z,12.25
2023-01-11T05:42:45.617Z,12.06
2023-01-11T05:45:29.988Z,12.21
2023-01-11T05:48:01.319Z,12.18
2023-01-11T05:50:31.340Z,12.25
2023-01-11T05:53:01.103Z,12.25
2023-01-11T05:55:30.851Z,12.19
2023-01-11T05:58:00.909Z,12.07
2023-01-11T06:00:30.424Z,11.83
2023-01-11T06:03:02.347Z,11.87
2023-01-11T06:05:33.695Z,11.78
2023-01-11T06:08:03.452Z,11.92
2023-01-11T06:10:33.207Z,11.84
2023-01-11T06:13:20.573Z,11.92
2023-01-11T06:15:50.382Z,11.64
2023-01-11T06:18:20.280Z,11.56
2023-01-11T06:20:53.953Z,11.56
2023-01-11T06:23:24.361Z,11.69
2023-01-11T06:25:54.173Z,11.72
2023-01-11T06:28:24.325Z,11.55
2023-01-11T06:30:55.268Z,11.57
2023-01-11T06:33:26.540Z,11.68
2023-01-11T06:35:57.411Z,11.58
2023-01-11T06:41:16.497Z,11.57
2023-01-11T06:43:46.783Z,11.39
2023-01-11T06:46:18.904Z,11.15
2023-01-11T06:48:49.012Z,11.27
2023-01-11T06:51:18.774Z,11.32
2023-01-11T06:53:48.882Z,11.48
2023-01-11T06:56:19.293Z,11.35
2023-01-11T06:58:49.282Z,11.22
2023-01-11T07:01:19.709Z,11.03
2023-01-11T07:03:49.493Z,11.12
2023-01-11T07:06:19.235Z,10.91
2023-01-11T07:08:49.004Z,10.94
2023-01-11T07:11:18.835Z,10.97
2023-01-11T07:13:48.365Z,10.83
2023-01-11T07:16:19.007Z,10.66
2023-01-11T07:18:48.802Z,10.64
2023-01-11T07:21:18.542Z,10.69
2023-01-11T07:23:49.564Z,10.68
2023-01-11T07:26:19.335Z,10.76
2023-01-11T07:28:49.200Z,10.59
2023-01-11T07:31:19.318Z,10.65
2023-01-11T07:33:49.064Z,10.65
2023-01-11T07:36:18.517Z,10.53
2023-01-11T07:38:48.732Z,10.55
2023-01-11T07:41:36.257Z,10.67
2023-01-11T07:44:10.451Z,10.62
2023-01-11T07:46:40.397Z,10.28
2023-01-11T07:49:10.205Z,10.44
2023-01-11T07:51:40.121Z,10.47
2023-01-11T07:54:11.131Z,10.34
2023-01-11T07:56:40.952Z,10.46
2023-01-11T07:59:11.491Z,10.56
2023-01-11T08:01:41.546Z,10.44
2023-01-11T08:04:13.131Z,10.63
2023-01-11T08:06:42.952Z,10.62
2023-01-11T08:09:12.776Z,10.39
2023-01-11T08:12:00.340Z,10.47
2023-01-11T08:14:41.769Z,10.54
2023-01-11T08:17:16.912Z,10.29
2023-01-11T08:19:46.639Z,10.29
2023-01-11T08:22:17.966Z,10.22
2023-01-11T08:24:47.690Z,10.20
2023-01-11T08:27:17.536Z,10.28
2023-01-11T08:29:47.303Z,10.11
2023-01-11T08:32:17.392Z,10.26
2023-01-11T08:34:47.900Z,10.12
2023-01-11T08:37:17.719Z,10.05
2023-01-11T08:39:48.660Z,9.93
2023-01-11T08:42:18.513Z,10.05
2023-01-11T08:44:48.302Z,10.28
2023-01-11T08:47:18.084Z,9.94
2023-01-11T08:49:47.840Z,10.01
2023-01-11T08:52:17.710Z,9.92
2023-01-11T08:54:47.416Z,9.95
2023-01-11T08:57:17.248Z,9.73
2023-01-11T08:59:46.987Z,9.73
2023-01-11T09:02:17.003Z,10.07
2023-01-11T09:04:47.093Z,10.08
2023-01-11T09:07:16.892Z,9.80
2023-01-11T09:09:47.393Z,9.89
2023-01-11T09:12:17.250Z,9.86
2023-01-11T09:14:47.102Z,9.80
2023-01-11T09:17:16.841Z,9.81
2023-01-11T09:19:46.619Z,9.76
2023-01-11T09:22:16.286Z,9.76
2023-01-11T09:24:46.291Z,9.80
2023-01-11T09:27:16.458Z,9.77
2023-01-11T09:29:46.476Z,9.67
2023-01-11T09:32:16.220Z,9.71
2023-01-11T09:34:47.257Z,9.64
2023-01-11T09:37:17.547Z,9.57
2023-01-11T09:39:47.674Z,9.63
2023-01-11T09:42:39.306Z,9.67
2023-01-11T09:45:27.580Z,9.59
2023-01-11T09:48:10.830Z,9.62
2023-01-11T09:50:47.618Z,9.71
2023-01-11T09:53:25.138Z,9.74
2023-01-11T09:55:58.484Z,9.91
2023-01-11T09:58:53.538Z,9.76
2023-01-11T10:01:49.418Z,10.21
2023-01-11T10:04:35.592Z,10.21
2023-01-11T10:07:44.074Z,10.68
2023-01-11T10:18:28.855Z,10.58
2023-01-11T10:18:52.985Z,10.84
2023-01-11T10:21:13.099Z,11.02
2023-01-11T10:23:57.767Z,10.96
2023-01-11T10:26:31.853Z,11.10
2023-01-11T10:29:11.932Z,10.90
2023-01-11T10:31:51.798Z,11.27
2023-01-11T10:34:23.855Z,11.38
2023-01-11T10:37:16.653Z,11.38
2023-01-11T10:40:27.544Z,11.27
2023-01-11T10:43:08.008Z,11.15
2023-01-11T10:45:55.415Z,11.30
2023-01-11T10:48:37.074Z,11.30
2023-01-11T10:51:37.540Z,11.23
2023-01-11T10:54:16.768Z,11.17
2023-01-11T10:57:04.749Z,11.22
2023-01-11T10:59:39.426Z,11.47
2023-01-11T11:02:21.412Z,11.08
2023-01-11T11:05:26.099Z,11.27
2023-01-11T11:08:04.486Z,11.50
2023-01-11T11:10:53.288Z,11.52
2023-01-11T11:13:45.406Z,11.55
2023-01-11T11:16:26.591Z,11.75
2023-01-11T11:18:59.462Z,11.81
2023-01-11T11:21:33.661Z,11.71
2023-01-11T11:24:17.717Z,11.63
2023-01-11T11:26:50.283Z,11.99
2023-01-11T11:29:25.945Z,11.79
2023-01-11T11:31:58.455Z,11.79
2023-01-11T11:34:29.141Z,12.01
2023-01-11T11:37:00.771Z,11.60
2023-01-11T11:39:33.026Z,11.26
2023-01-11T11:42:11.091Z,11.10
2023-01-11T11:44:41.120Z,11.49
2023-01-11T11:47:18.353Z,11.46
2023-01-11T11:49:48.115Z,11.61
2023-01-11T11:52:19.148Z,11.31
2023-01-11T11:54:56.598Z,11.40
2023-01-11T11:57:29.397Z,11.35
2023-01-11T12:00:05.013Z,11.30
2023-01-11T12:02:37.324Z,11.60
2023-01-11T12:05:11.127Z,11.64
2023-01-11T12:07:55.251Z,11.65
2023-01-11T12:10:23.913Z,11.49
2023-01-11T12:12:56.740Z,11.69
2023-01-11T12:15:34.896Z,11.42
2023-01-11T12:18:31.399Z,11.64
2023-01-11T12:21:09.877Z,11.95
2023-01-11T12:23:40.556Z,12.10
2023-01-11T12:26:22.758Z,12.05
2023-01-11T12:29:23.419Z,11.91
2023-01-11T12:32:11.183Z,12.04
2023-01-11T12:35:05.588Z,11.54
2023-01-11T12:38:05.488Z,11.59
2023-01-11T12:40:52.592Z,11.72
2023-01-11T12:43:22.787Z,11.43
2023-01-11T12:45:58.234Z,11.62
2023-01-11T12:48:37.092Z,11.90
2023-01-11T12:51:32.536Z,11.83
2023-01-11T12:54:10.967Z,12.05
2023-01-11T12:56:46.364Z,12.25
2023-01-11T12:59:35.278Z,12.13
2023-01-11T13:02:14.588Z,12.45
2023-01-11T13:04:50.341Z,12.23
2023-01-11T13:07:45.235Z,11.80
2023-01-11T13:10:17.726Z,11.57
2023-01-11T13:12:58.996Z,11.79
2023-01-11T13:15:44.949Z,11.98
2023-01-11T13:18:20.368Z,11.65
2023-01-11T13:21:06.769Z,11.62
2023-01-11T13:23:54.787Z,11.57
2023-01-11T13:26:29.845Z,11.36
2023-01-11T13:29:18.906Z,11.44
2023-01-11T13:31:51.015Z,11.37
2023-01-11T13:34:26.693Z,11.25
2023-01-11T13:37:02.969Z,11.44
2023-01-11T13:39:53.645Z,11.23
2023-01-11T13:42:31.767Z,11.14
2023-01-11T13:45:04.867Z,10.97
2023-01-11T13:47:47.204Z,10.87
2023-01-11T13:50:29.001Z,10.79
2023-01-11T13:53:06.361Z,10.78
2023-01-11T13:55:50.501Z,10.78
2023-01-11T13:58:24.994Z,10.67
2023-01-11T14:01:00.139Z,10.76
2023-01-11T14:03:35.860Z,10.45
2023-01-11T14:06:21.766Z,10.70
2023-01-11T14:09:05.526Z,10.61
2023-01-11T14:11:44.469Z,10.57
2023-01-11T14:14:18.165Z,10.47
2023-01-11T14:17:02.874Z,10.50
2023-01-11T14:19:54.846Z,10.68
2023-01-11T14:22:42.067Z,10.42
2023-01-11T14:25:23.289Z,10.60
2023-01-11T14:28:12.487Z,10.73
2023-01-11T14:30:55.221Z,10.64
2023-01-11T14:33:39.654Z,10.76
2023-01-11T14:36:40.142Z,10.69
2023-01-11T14:39:24.481Z,10.86
2023-01-11T14:42:05.798Z,10.71
2023-01-11T14:44:55.000Z,10.86
2023-01-11T14:47:42.013Z,10.84
2023-01-11T14:50:22.639Z,10.76
2023-01-11T14:52:54.572Z,10.67
2023-01-11T14:55:27.123Z,10.67
2023-01-11T14:58:03.170Z,10.58
2023-01-11T15:00:35.674Z,10.65
2023-01-11T15:03:11.692Z,10.65
2023-01-11T15:05:52.601Z,10.70
2023-01-11T15:08:27.655Z,10.56
2023-01-11T15:10:59.603Z,10.60
2023-01-11T15:13:33.823Z,10.45
2023-01-11T15:16:36.460Z,10.20
2023-01-11T15:19:11.758Z,10.39
2023-01-11T15:21:44.661Z,10.55
2023-01-11T15:24:32.524Z,10.34
2023-01-11T15:27:03.845Z,10.14
2023-01-11T15:29:36.294Z,10.41
2023-01-11T15:32:22.126Z,10.23
2023-01-11T15:34:52.791Z,10.25
2023-01-11T15:37:34.670Z,10.25
2023-01-11T15:43:21.833Z,10.14
2023-01-11T15:46:31.679Z,10.10
2023-01-11T15:49:21.196Z,10.00
2023-01-11T15:52:19.227Z,10.07
2023-01-11T15:55:25.096Z,9.90
2023-01-11T15:58:19.072Z,9.87
2023-01-11T16:01:08.256Z,10.03
2023-01-11T16:04:02.133Z,10.01
2023-01-11T16:06:37.889Z,9.85
2023-01-11T16:09:24.993Z,9.88
2023-01-11T16:12:01.987Z,9.88
2023-01-11T16:14:43.582Z,9.63
2023-01-11T16:17:14.761Z,9.77
2023-01-11T16:19:45.831Z,9.98
2023-01-11T16:22:20.818Z,9.98
2023-01-11T16:24:53.495Z,9.96
2023-01-11T16:27:26.708Z,10.07
2023-01-11T16:29:57.550Z,9.86
2023-01-11T16:32:35.481Z,9.90
2023-01-11T16:35:19.922Z,9.84
2023-01-11T16:37:55.612Z,9.86
2023-01-11T16:40:39.820Z,9.72
2023-01-11T16:43:27.686Z,9.96
2023-01-11T16:45:57.522Z,9.91
2023-01-11T16:48:29.465Z,9.70
2023-01-11T16:51:14.248Z,9.70
2023-01-11T16:53:46.960Z,9.99
2023-01-11T16:56:19.511Z,9.73
2023-01-11T16:59:07.442Z,9.93
2023-01-11T17:01:54.704Z,9.69
2023-01-11T17:04:29.640Z,9.81
2023-01-11T17:07:11.000Z,9.74
2023-01-11T17:09:43.812Z,9.93
2023-01-11T17:12:19.060Z,10.00
2023-01-11T17:15:08.926Z,10.01
2023-01-11T17:17:39.549Z,9.90
2023-01-11T17:20:21.872Z,9.96
2023-01-11T17:22:53.756Z,10.14
2023-01-11T17:25:37.302Z,10.02
2023-01-11T17:28:06.808Z,9.92
2023-01-11T17:30:38.313Z,9.84
2023-01-11T17:33:09.611Z,9.89
2023-01-11T17:35:42.361Z,9.86
2023-01-11T17:38:15.152Z,9.99
2023-01-11T17:40:46.333Z,9.87
2023-01-11T17:43:45.525Z,10.03
2023-01-11T17:46:21.678Z,9.90
2023-01-11T17:48:57.676Z,9.75
2023-01-11T17:51:31.376Z,9.76
2023-01-11T17:54:01.047Z,9.54
2023-01-11T17:56:41.525Z,9.65
2023-01-11T17:59:22.217Z,9.57
2023-01-11T18:02:02.775Z,9.51
2023-01-11T18:04:33.002Z,9.45
2023-01-11T18:07:19.906Z,9.47
2023-01-11T18:09:51.827Z,9.45
2023-01-11T18:12:30.800Z,9.56
2023-01-11T18:15:03.595Z,9.49
2023-01-11T18:17:42.560Z,9.56
2023-01-11T18:20:20.502Z,9.55
2023-01-11T18:23:05.259Z,9.55
2023-01-11T18:25:36.305Z,9.80
2023-01-11T18:28:28.069Z,9.73
2023-01-11T18:31:01.903Z,9.56
2023-01-11T18:33:34.401Z,9.55
2023-01-11T18:36:05.287Z,9.68
2023-01-11T18:38:36.969Z,9.48
2023-01-11T18:41:26.843Z,9.78
2023-01-11T18:43:56.941Z,9.65
2023-01-11T18:46:26.404Z,9.53
2023-01-11T18:48:56.161Z,9.50
2023-01-11T18:51:31.748Z,9.48
2023-01-11T18:54:01.250Z,9.46
2023-01-11T18:56:30.877Z,9.48
2023-01-11T18:59:00.640Z,9.68
2023-01-11T19:01:35.246Z,9.60
2023-01-11T19:04:03.017Z,9.56
2023-01-11T19:06:32.782Z,9.64
2023-01-11T19:09:02.669Z,9.51
2023-01-11T19:11:32.408Z,9.64
2023-01-11T19:14:02.132Z,9.56
2023-01-11T19:16:31.876Z,9.54
2023-01-11T19:19:01.838Z,9.49
2023-01-11T19:21:31.576Z,9.44
2023-01-11T19:24:01.359Z,9.66
2023-01-11T19:26:31.055Z,9.70
2023-01-11T19:29:01.156Z,9.24
2023-01-11T19:31:31.505Z,9.44
2023-01-11T19:34:01.419Z,9.42
2023-01-11T19:36:32.230Z,9.49
2023-01-11T19:39:02.290Z,9.52
2023-01-11T19:41:33.634Z,9.52
2023-01-11T19:44:03.454Z,9.42
2023-01-11T19:46:33.280Z,9.47
2023-01-11T19:49:02.777Z,9.33
2023-01-11T19:51:32.542Z,9.26
2023-01-11T19:54:02.304Z,9.64
2023-01-11T19:56:32.724Z,9.61
2023-01-11T19:59:02.506Z,9.63
2023-01-11T20:01:32.275Z,9.53
2023-01-11T20:04:01.948Z,9.45
2023-01-11T20:06:31.892Z,9.40
2023-01-11T20:09:01.675Z,9.46
2023-01-11T20:11:31.553Z,9.25
2023-01-11T20:14:01.283Z,9.23
2023-01-11T20:16:31.022Z,9.09
2023-01-11T20:19:00.754Z,9.42
2023-01-11T20:21:32.923Z,9.06
2023-01-11T20:24:03.555Z,9.15
2023-01-11T20:26:34.016Z,9.28
2023-01-11T20:29:05.507Z,9.09
2023-01-11T20:31:35.822Z,8.91
2023-01-11T20:34:10.687Z,8.91
2023-01-11T20:36:42.125Z,8.88
2023-01-11T20:39:12.595Z,8.91
2023-01-11T20:41:48.490Z,9.02
2023-01-11T20:44:24.341Z,9.02
2023-01-11T20:46:55.650Z,8.74
2023-01-11T20:49:28.801Z,8.75
2023-01-11T20:51:58.681Z,8.86
2023-01-11T20:54:28.126Z,8.80
2023-01-11T20:57:00.685Z,9.04
2023-01-11T20:59:32.105Z,8.93
2023-01-11T21:02:01.813Z,9.03
2023-01-11T21:04:31.701Z,8.73
2023-01-11T21:07:01.436Z,8.72
2023-01-11T21:09:30.966Z,9.06
2023-01-11T21:12:01.027Z,8.79
2023-01-11T21:14:30.930Z,8.73
2023-01-11T21:17:00.669Z,9.10
2023-01-11T21:19:31.100Z,8.86
2023-01-11T21:22:01.250Z,8.97
2023-01-11T21:24:31.384Z,8.97
2023-01-11T21:27:01.187Z,9.04
2023-01-11T21:29:31.367Z,8.91
2023-01-11T21:32:01.127Z,8.97
2023-01-11T21:34:30.769Z,9.07
2023-01-11T21:37:00.517Z,9.29
2023-01-11T21:39:30.240Z,8.90
2023-01-11T21:42:00.035Z,8.97
2023-01-11T21:44:33.432Z,8.92
2023-01-11T21:47:05.778Z,9.01
2023-01-11T21:49:35.497Z,9.07
2023-01-11T21:52:05.246Z,9.02
2023-01-11T21:54:35.068Z,8.96
2023-01-11T21:57:04.655Z,8.96
2023-01-11T21:59:35.736Z,9.17
2023-01-11T22:02:05.852Z,9.08
2023-01-11T22:04:36.768Z,9.08
2023-01-11T22:07:06.493Z,8.78
2023-01-11T22:09:36.261Z,8.92
2023-01-11T22:12:06.136Z,9.10
2023-01-11T22:14:35.940Z,8.91
2023-01-11T22:17:05.711Z,8.99
2023-01-11T22:19:35.776Z,9.02
2023-01-11T22:22:06.286Z,9.31
2023-01-11T22:24:36.058Z,9.07
2023-01-11T22:27:05.649Z,9.01
2023-01-11T22:29:35.390Z,9.00
2023-01-11T22:32:05.214Z,9.06
2023-01-11T22:34:35.409Z,9.03
2023-01-11T22:37:05.281Z,9.01
2023-01-11T22:39:36.663Z,9.02
2023-01-11T22:42:06.919Z,9.18
2023-01-11T22:44:36.647Z,9.21
2023-01-11T22:47:06.774Z,9.03
2023-01-11T22:49:36.516Z,9.25
2023-01-11T22:52:08.395Z,9.24
2023-01-11T22:54:38.131Z,9.24
2023-01-11T22:57:07.887Z,9.39
2023-01-11T22:59:37.895Z,9.08
2023-01-11T23:02:07.906Z,9.14
2023-01-11T23:04:37.641Z,9.27
2023-01-11T23:07:07.721Z,9.09
2023-01-11T23:09:37.512Z,9.14
2023-01-11T23:12:27.004Z,9.11
2023-01-11T23:14:57.016Z,9.05
2023-01-11T23:17:27.027Z,9.04
2023-01-11T23:19:56.759Z,9.03
2023-01-11T23:22:26.705Z,9.03
2023-01-11T23:24:56.775Z,9.01
2023-01-11T23:27:26.593Z,8.81
2023-01-11T23:29:56.811Z,9.04
2023-01-11T23:32:26.258Z,9.04
2023-01-11T23:34:56.165Z,9.04
2023-01-11T23:37:25.907Z,8.89
2023-01-11T23:39:55.644Z,9.07
2023-01-11T23:42:27.537Z,8.92
2023-01-11T23:44:58.812Z,9.05
2023-01-11T23:47:30.574Z,9.13
2023-01-11T23:50:01.358Z,8.99
2023-01-11T23:52:32.980Z,9.08
2023-01-11T23:55:03.036Z,8.96
2023-01-11T23:57:32.778Z,8.89
